<?xml version='1.0' encoding='UTF-8'?>
<gpx version="1.1" xmlns="http://www.topografix.com/GPX/1/1"
    xmlns:xsi="http://www.w3.org/2001/XMLSchema-instance" 
    xsi:schemaLocation="http://www.topografix.com/GPX/1/1 http://www.topografix.com/GPX/1/1/gpx.xsd">
  <metadata>
    <desc>Rund um Weßlinger See</desc>
    <author>
      <name>dupa</name>
    </author>
    <copyright author="dupa">
      <year>2010</year>
      <license>Rund um Weßlinger See</license>
    </copyright>
    <bounds minlat="48.069894" minlon="11.247181" maxlat="48.075565999999995" maxlon="11.253931" />
  </metadata>
  <trk>    <trkseg>
      <trkpt lat="48.070228" lon="11.251316">
        <time>2010-09-11T06:00:00Z</time>
      </trkpt>
      <trkpt lat="48.070285" lon="11.251397">
        <time>2010-09-11T06:00:07Z</time>
      </trkpt>
      <trkpt lat="48.070325" lon="11.251449">
        <time>2010-09-11T06:00:14Z</time>
      </trkpt>
      <trkpt lat="48.070368" lon="11.251497">
        <time>2010-09-11T06:00:18Z</time>
      </trkpt>
      <trkpt lat="48.070404" lon="11.251506">
        <time>2010-09-11T06:00:23Z</time>
      </trkpt>
      <trkpt lat="48.070446" lon="11.251503">
        <time>2010-09-11T06:00:26Z</time>
      </trkpt>
      <trkpt lat="48.070633" lon="11.251377">
        <time>2010-09-11T06:00:47Z</time>
      </trkpt>
      <trkpt lat="48.070883" lon="11.251109">
        <time>2010-09-11T06:01:18Z</time>
      </trkpt>
      <trkpt lat="48.071317" lon="11.250628">
        <time>2010-09-11T06:02:12Z</time>
      </trkpt>
      <trkpt lat="48.071356" lon="11.250527">
        <time>2010-09-11T06:02:19Z</time>
      </trkpt>
      <trkpt lat="48.071244" lon="11.250426">
        <time>2010-09-11T06:02:33Z</time>
      </trkpt>
      <trkpt lat="48.070986" lon="11.250106">
        <time>2010-09-11T06:03:06Z</time>
      </trkpt>
      <trkpt lat="48.070938" lon="11.249998">
        <time>2010-09-11T06:03:15Z</time>
      </trkpt>
      <trkpt lat="48.070902" lon="11.249879">
        <time>2010-09-11T06:03:24Z</time>
      </trkpt>
      <trkpt lat="48.070774" lon="11.249223">
        <time>2010-09-11T06:04:10Z</time>
      </trkpt>
      <trkpt lat="48.070742" lon="11.248961">
        <time>2010-09-11T06:04:27Z</time>
      </trkpt>
      <trkpt lat="48.070744" lon="11.248892">
        <time>2010-09-11T06:04:32Z</time>
      </trkpt>
      <trkpt lat="48.070754" lon="11.248827">
        <time>2010-09-11T06:04:36Z</time>
      </trkpt>
      <trkpt lat="48.070879" lon="11.248239">
        <time>2010-09-11T06:05:18Z</time>
      </trkpt>
      <trkpt lat="48.071186" lon="11.247522">
        <time>2010-09-11T06:06:15Z</time>
      </trkpt>
      <trkpt lat="48.071398" lon="11.247181">
        <time>2010-09-11T06:06:46Z</time>
      </trkpt>
      <trkpt lat="48.071565" lon="11.247287">
        <time>2010-09-11T06:07:04Z</time>
      </trkpt>
      <trkpt lat="48.071636" lon="11.247306">
        <time>2010-09-11T06:07:11Z</time>
      </trkpt>
      <trkpt lat="48.071814" lon="11.247311">
        <time>2010-09-11T06:07:29Z</time>
      </trkpt>
      <trkpt lat="48.072008" lon="11.247353">
        <time>2010-09-11T06:07:49Z</time>
      </trkpt>
      <trkpt lat="48.072254" lon="11.24737">
        <time>2010-09-11T06:08:13Z</time>
      </trkpt>
      <trkpt lat="48.072332" lon="11.247473">
        <time>2010-09-11T06:08:24Z</time>
      </trkpt>
      <trkpt lat="48.072484" lon="11.247626">
        <time>2010-09-11T06:08:42Z</time>
      </trkpt>
      <trkpt lat="48.072704" lon="11.247792">
        <time>2010-09-11T06:09:07Z</time>
      </trkpt>
      <trkpt lat="48.072814" lon="11.247868">
        <time>2010-09-11T06:09:19Z</time>
      </trkpt>
      <trkpt lat="48.072926" lon="11.24795">
        <time>2010-09-11T06:09:32Z</time>
      </trkpt>
      <trkpt lat="48.073002" lon="11.248017">
        <time>2010-09-11T06:09:40Z</time>
      </trkpt>
      <trkpt lat="48.073255" lon="11.248235">
        <time>2010-09-11T06:10:09Z</time>
      </trkpt>
      <trkpt lat="48.073439" lon="11.248401">
        <time>2010-09-11T06:10:31Z</time>
      </trkpt>
      <trkpt lat="48.073565" lon="11.2485">
        <time>2010-09-11T06:10:46Z</time>
      </trkpt>
      <trkpt lat="48.073752" lon="11.248599">
        <time>2010-09-11T06:11:05Z</time>
      </trkpt>
      <trkpt lat="48.07383" lon="11.248645">
        <time>2010-09-11T06:11:14Z</time>
      </trkpt>
      <trkpt lat="48.07392" lon="11.248725">
        <time>2010-09-11T06:11:24Z</time>
      </trkpt>
      <trkpt lat="48.074022" lon="11.248878">
        <time>2010-09-11T06:11:38Z</time>
      </trkpt>
      <trkpt lat="48.07411" lon="11.249051">
        <time>2010-09-11T06:11:53Z</time>
      </trkpt>
      <trkpt lat="48.074247" lon="11.249302">
        <time>2010-09-11T06:12:15Z</time>
      </trkpt>
      <trkpt lat="48.074379" lon="11.249511">
        <time>2010-09-11T06:12:34Z</time>
      </trkpt>
      <trkpt lat="48.074513" lon="11.249718">
        <time>2010-09-11T06:12:53Z</time>
      </trkpt>
      <trkpt lat="48.074624" lon="11.249861">
        <time>2010-09-11T06:13:08Z</time>
      </trkpt>
      <trkpt lat="48.074722" lon="11.250081">
        <time>2010-09-11T06:13:26Z</time>
      </trkpt>
      <trkpt lat="48.074773" lon="11.250208">
        <time>2010-09-11T06:13:35Z</time>
      </trkpt>
      <trkpt lat="48.074815" lon="11.250325">
        <time>2010-09-11T06:13:45Z</time>
      </trkpt>
      <trkpt lat="48.074834" lon="11.250395">
        <time>2010-09-11T06:13:50Z</time>
      </trkpt>
      <trkpt lat="48.07484" lon="11.250452">
        <time>2010-09-11T06:13:53Z</time>
      </trkpt>
      <trkpt lat="48.074829" lon="11.250707">
        <time>2010-09-11T06:14:11Z</time>
      </trkpt>
      <trkpt lat="48.074812" lon="11.25107">
        <time>2010-09-11T06:14:35Z</time>
      </trkpt>
      <trkpt lat="48.074822" lon="11.251153">
        <time>2010-09-11T06:14:40Z</time>
      </trkpt>
      <trkpt lat="48.074848" lon="11.251217">
        <time>2010-09-11T06:14:46Z</time>
      </trkpt>
      <trkpt lat="48.074878" lon="11.251258">
        <time>2010-09-11T06:14:49Z</time>
      </trkpt>
      <trkpt lat="48.074921" lon="11.251276">
        <time>2010-09-11T06:14:55Z</time>
      </trkpt>
      <trkpt lat="48.074973" lon="11.251276">
        <time>2010-09-11T06:14:59Z</time>
      </trkpt>
      <trkpt lat="48.075132" lon="11.251227">
        <time>2010-09-11T06:15:16Z</time>
      </trkpt>
      <trkpt lat="48.07532" lon="11.251168">
        <time>2010-09-11T06:15:34Z</time>
      </trkpt>
      <trkpt lat="48.075566" lon="11.251129">
        <time>2010-09-11T06:16:00Z</time>
      </trkpt>
      <trkpt lat="48.075531" lon="11.25132">
        <time>2010-09-11T06:16:13Z</time>
      </trkpt>
      <trkpt lat="48.075403" lon="11.251875">
        <time>2010-09-11T06:16:52Z</time>
      </trkpt>
      <trkpt lat="48.075173" lon="11.252702">
        <time>2010-09-11T06:17:52Z</time>
      </trkpt>
      <trkpt lat="48.075163" lon="11.252739">
        <time>2010-09-11T06:17:55Z</time>
      </trkpt>
      <trkpt lat="48.075101" lon="11.252964">
        <time>2010-09-11T06:18:11Z</time>
      </trkpt>
      <trkpt lat="48.074976" lon="11.253036">
        <time>2010-09-11T06:18:25Z</time>
      </trkpt>
      <trkpt lat="48.074729" lon="11.253256">
        <time>2010-09-11T06:18:54Z</time>
      </trkpt>
      <trkpt lat="48.074537" lon="11.253505">
        <time>2010-09-11T06:19:18Z</time>
      </trkpt>
      <trkpt lat="48.074177" lon="11.253634">
        <time>2010-09-11T06:19:56Z</time>
      </trkpt>
      <trkpt lat="48.073617" lon="11.25374">
        <time>2010-09-11T06:20:53Z</time>
      </trkpt>
      <trkpt lat="48.073108" lon="11.253658">
        <time>2010-09-11T06:21:44Z</time>
      </trkpt>
      <trkpt lat="48.072821" lon="11.253675">
        <time>2010-09-11T06:22:12Z</time>
      </trkpt>
      <trkpt lat="48.072645" lon="11.253671">
        <time>2010-09-11T06:22:31Z</time>
      </trkpt>
      <trkpt lat="48.072166" lon="11.253699">
        <time>2010-09-11T06:23:18Z</time>
      </trkpt>
      <trkpt lat="48.072047" lon="11.253763">
        <time>2010-09-11T06:23:31Z</time>
      </trkpt>
      <trkpt lat="48.071877" lon="11.253849">
        <time>2010-09-11T06:23:49Z</time>
      </trkpt>
      <trkpt lat="48.071728" lon="11.253931">
        <time>2010-09-11T06:24:05Z</time>
      </trkpt>
      <trkpt lat="48.07152" lon="11.253865">
        <time>2010-09-11T06:24:26Z</time>
      </trkpt>
      <trkpt lat="48.071206" lon="11.253847">
        <time>2010-09-11T06:24:57Z</time>
      </trkpt>
      <trkpt lat="48.070782" lon="11.253819">
        <time>2010-09-11T06:25:40Z</time>
      </trkpt>
      <trkpt lat="48.070541" lon="11.253816">
        <time>2010-09-11T06:26:04Z</time>
      </trkpt>
      <trkpt lat="48.070408" lon="11.253746">
        <time>2010-09-11T06:26:19Z</time>
      </trkpt>
      <trkpt lat="48.070255" lon="11.253655">
        <time>2010-09-11T06:26:35Z</time>
      </trkpt>
      <trkpt lat="48.070177" lon="11.253567">
        <time>2010-09-11T06:26:44Z</time>
      </trkpt>
      <trkpt lat="48.070067" lon="11.253421">
        <time>2010-09-11T06:27:00Z</time>
      </trkpt>
      <trkpt lat="48.069992" lon="11.253297">
        <time>2010-09-11T06:27:10Z</time>
      </trkpt>
      <trkpt lat="48.069924" lon="11.253163">
        <time>2010-09-11T06:27:22Z</time>
      </trkpt>
      <trkpt lat="48.069904" lon="11.253037">
        <time>2010-09-11T06:27:31Z</time>
      </trkpt>
      <trkpt lat="48.069894" lon="11.252905">
        <time>2010-09-11T06:27:39Z</time>
      </trkpt>
      <trkpt lat="48.069934" lon="11.252593">
        <time>2010-09-11T06:28:01Z</time>
      </trkpt>
      <trkpt lat="48.070009" lon="11.252362">
        <time>2010-09-11T06:28:18Z</time>
      </trkpt>
      <trkpt lat="48.070088" lon="11.252099">
        <time>2010-09-11T06:28:37Z</time>
      </trkpt>
      <trkpt lat="48.070183" lon="11.251733">
        <time>2010-09-11T06:29:03Z</time>
      </trkpt>
      <trkpt lat="48.070215" lon="11.251464">
        <time>2010-09-11T06:29:22Z</time>
      </trkpt>
      <trkpt lat="48.070228" lon="11.251316">
        <time>2010-09-11T06:29:31Z</time>
      </trkpt>
    </trkseg>
  </trk>
</gpx>